createdAt,value
2023-05-24T00:00:56.491Z,38.99
2023-05-24T00:01:56.541Z,38.97
2023-05-24T00:02:56.650Z,39.02
2023-05-24T00:03:56.651Z,39.01
2023-05-24T00:04:56.621Z,39.00
2023-05-24T00:05:56.674Z,39.00
2023-05-24T00:06:56.677Z,39.00
2023-05-24T00:07:56.722Z,39.06
2023-05-24T00:08:56.720Z,39.05
2023-05-24T00:09:56.770Z,39.04
2023-05-24T00:10:56.817Z,39.04
2023-05-24T00:11:56.861Z,39.05
2023-05-24T00:12:56.868Z,39.05
2023-05-24T00:13:56.915Z,39.06
2023-05-24T00:14:56.945Z,39.04
2023-05-24T00:15:56.973Z,39.02
2023-05-24T00:16:57.168Z,39.05
2023-05-24T00:17:57.055Z,39.06
2023-05-24T00:18:57.064Z,39.06
2023-05-24T00:19:57.124Z,39.04
2023-05-24T00:20:57.145Z,39.05
2023-05-24T00:21:57.140Z,39.06
2023-05-24T00:22:57.195Z,39.05
2023-05-24T00:23:57.220Z,39.09
2023-05-24T00:24:57.246Z,39.06
2023-05-24T00:25:57.293Z,39.07
2023-05-24T00:26:57.330Z,39.07
2023-05-24T00:27:57.409Z,39.09
2023-05-24T00:28:57.409Z,39.07
2023-05-24T00:29:57.422Z,39.09
2023-05-24T00:30:57.561Z,39.08
2023-05-24T00:31:57.530Z,39.10
2023-05-24T00:32:57.579Z,39.07
2023-05-24T00:33:57.606Z,39.07
2023-05-24T00:34:57.587Z,39.11
2023-05-24T00:35:57.611Z,39.08
2023-05-24T00:36:57.650Z,39.15
2023-05-24T00:37:57.701Z,39.11
2023-05-24T00:38:57.729Z,39.12
2023-05-24T00:39:57.750Z,39.12
2023-05-24T00:40:57.809Z,39.10
2023-05-24T00:41:57.832Z,39.12
2023-05-24T00:42:57.852Z,39.16
2023-05-24T00:43:57.884Z,39.11
2023-05-24T00:44:57.922Z,39.11
2023-05-24T00:45:57.998Z,39.16
2023-05-24T00:46:57.979Z,39.09
2023-05-24T00:47:58.125Z,39.14
2023-05-24T00:48:58.031Z,39.12
2023-05-24T00:49:58.065Z,39.14
2023-05-24T00:50:58.102Z,39.12
2023-05-24T00:51:58.164Z,39.12
2023-05-24T00:52:58.158Z,39.17
2023-05-24T00:53:58.228Z,39.10
2023-05-24T00:54:58.240Z,39.12
2023-05-24T00:55:58.304Z,39.08
2023-05-24T00:56:58.276Z,39.16
2023-05-24T00:57:58.338Z,39.12
2023-05-24T00:58:58.363Z,39.12
2023-05-24T00:59:58.417Z,39.16
2023-05-24T01:00:58.401Z,39.12
2023-05-24T01:01:58.525Z,39.13
2023-05-24T01:02:58.598Z,39.12
2023-05-24T01:03:58.554Z,39.14
2023-05-24T01:04:58.572Z,39.11
2023-05-24T01:05:58.609Z,39.09
2023-05-24T01:06:58.689Z,39.13
2023-05-24T01:07:58.771Z,39.13
2023-05-24T01:08:58.700Z,39.13
2023-05-24T01:09:58.748Z,39.16
2023-05-24T01:10:58.770Z,39.14
2023-05-24T01:11:58.867Z,39.13
2023-05-24T01:12:58.828Z,39.13
2023-05-24T01:13:58.905Z,39.16
2023-05-24T01:14:58.909Z,39.17
2023-05-24T01:16:05.987Z,39.13
2023-05-24T01:16:58.968Z,39.13
2023-05-24T01:17:58.968Z,39.14
2023-05-24T01:18:58.933Z,39.13
2023-05-24T01:19:58.998Z,39.16
2023-05-24T01:20:58.932Z,39.12
2023-05-24T01:21:58.924Z,39.16
2023-05-24T01:22:58.904Z,39.13
2023-05-24T01:23:58.924Z,39.12
2023-05-24T01:24:58.917Z,39.16
2023-05-24T01:25:58.935Z,39.11
2023-05-24T01:26:58.881Z,39.16
2023-05-24T01:27:58.915Z,39.16
2023-05-24T01:28:58.872Z,39.12
2023-05-24T01:29:58.883Z,39.11
2023-05-24T01:30:58.887Z,39.09
2023-05-24T01:31:58.860Z,39.09
2023-05-24T01:32:58.864Z,39.11
2023-05-24T01:33:58.842Z,39.09
2023-05-24T01:34:58.861Z,39.10
2023-05-24T01:35:58.829Z,39.11
2023-05-24T01:36:58.856Z,39.13
2023-05-24T01:37:58.836Z,39.14
2023-05-24T01:38:58.801Z,39.13
2023-05-24T01:39:58.812Z,39.18
2023-05-24T01:40:58.810Z,39.16
2023-05-24T01:41:58.774Z,39.15
2023-05-24T01:42:58.781Z,39.13
2023-05-24T01:43:58.777Z,39.09
2023-05-24T01:44:58.777Z,39.09
2023-05-24T01:45:58.765Z,39.11
2023-05-24T01:46:58.805Z,39.13
2023-05-24T01:47:58.790Z,39.08
2023-05-24T01:48:58.731Z,39.06
2023-05-24T01:49:58.762Z,39.08
2023-05-24T01:50:58.785Z,39.05
2023-05-24T01:51:58.854Z,39.09
2023-05-24T01:52:58.837Z,39.08
2023-05-24T01:53:58.829Z,39.10
2023-05-24T01:54:58.858Z,39.06
2023-05-24T01:55:58.918Z,39.08
2023-05-24T01:56:58.977Z,39.09
2023-05-24T01:57:59.001Z,39.14
2023-05-24T01:58:59.025Z,39.05
2023-05-24T01:59:59.086Z,39.08
2023-05-24T02:00:59.132Z,39.05
2023-05-24T02:01:59.133Z,39.04
2023-05-24T02:02:59.304Z,39.09
2023-05-24T02:03:59.208Z,39.08
2023-05-24T02:04:59.212Z,39.07
2023-05-24T02:05:59.271Z,39.04
2023-05-24T02:06:59.302Z,39.04
2023-05-24T02:07:59.356Z,39.11
2023-05-24T02:08:59.401Z,39.09
2023-05-24T02:09:59.439Z,39.07
2023-05-24T02:10:59.457Z,39.08
2023-05-24T02:11:59.470Z,39.03
2023-05-24T02:12:59.589Z,39.05
2023-05-24T02:13:59.578Z,39.07
2023-05-24T02:14:59.601Z,39.05
2023-05-24T02:15:59.669Z,39.09
2023-05-24T02:16:59.736Z,39.05
2023-05-24T02:17:59.731Z,39.01
2023-05-24T02:18:59.763Z,39.04
2023-05-24T02:19:59.821Z,39.05
2023-05-24T02:20:59.803Z,39.06
2023-05-24T02:21:59.856Z,39.02
2023-05-24T02:22:59.875Z,39.01
2023-05-24T02:23:59.958Z,39.05
2023-05-24T02:24:59.975Z,39.06
2023-05-24T02:26:00.035Z,39.04
2023-05-24T02:27:00.031Z,39.05
2023-05-24T02:28:00.069Z,39.04
2023-05-24T02:29:00.154Z,39.03
2023-05-24T02:30:00.188Z,39.01
2023-05-24T02:31:00.256Z,39.01
2023-05-24T02:32:00.233Z,39.06
2023-05-24T02:33:00.305Z,39.04
2023-05-24T02:34:00.286Z,39.01
2023-05-24T02:35:00.296Z,39.05
2023-05-24T02:36:00.396Z,39.05
2023-05-24T02:37:00.404Z,39.06
2023-05-24T02:38:00.423Z,39.06
2023-05-24T02:39:00.519Z,39.01
2023-05-24T02:40:00.549Z,38.96
2023-05-24T02:41:00.604Z,39.04
2023-05-24T02:42:00.644Z,39.04
2023-05-24T02:43:00.654Z,39.04
2023-05-24T02:44:00.697Z,38.97
2023-05-24T02:45:00.761Z,38.98
2023-05-24T02:46:00.841Z,39.00
2023-05-24T02:47:00.843Z,39.00
2023-05-24T02:48:00.924Z,38.96
2023-05-24T02:49:00.918Z,39.01
2023-05-24T02:50:00.967Z,38.98
2023-05-24T02:51:00.981Z,38.97
2023-05-24T02:52:01.088Z,38.98
2023-05-24T02:53:01.111Z,39.03
2023-05-24T02:54:01.206Z,38.97
2023-05-24T02:55:01.199Z,39.02
2023-05-24T02:56:01.229Z,39.05
2023-05-24T02:57:01.312Z,39.03
2023-05-24T02:58:01.356Z,39.04
2023-05-24T02:59:01.395Z,39.00
2023-05-24T03:00:01.442Z,38.97
2023-05-24T03:01:01.488Z,39.01
2023-05-24T03:02:01.592Z,39.04
2023-05-24T03:03:01.589Z,39.02
2023-05-24T03:04:01.658Z,39.03
2023-05-24T03:05:01.650Z,39.00
2023-05-24T03:06:01.685Z,39.03
2023-05-24T03:07:01.736Z,38.98
2023-05-24T03:08:01.762Z,39.00
2023-05-24T03:09:01.805Z,38.99
2023-05-24T03:10:01.806Z,38.99
2023-05-24T03:11:01.890Z,39.01
2023-05-24T03:12:01.885Z,39.00
2023-05-24T03:13:01.960Z,39.00
2023-05-24T03:14:02.041Z,38.97
2023-05-24T03:15:02.048Z,39.00
2023-05-24T03:16:02.181Z,38.97
2023-05-24T03:17:02.157Z,39.05
2023-05-24T03:18:02.172Z,39.00
2023-05-24T03:19:02.216Z,39.02
2023-05-24T03:20:02.294Z,39.02
2023-05-24T03:21:02.288Z,39.00
2023-05-24T03:22:02.339Z,39.00
2023-05-24T03:23:02.378Z,39.01
2023-05-24T03:24:02.450Z,39.02
2023-05-24T03:25:02.501Z,39.02
2023-05-24T03:26:02.574Z,38.99
2023-05-24T03:27:02.594Z,38.95
2023-05-24T03:28:02.624Z,38.98
2023-05-24T03:29:02.693Z,38.97
2023-05-24T03:30:02.738Z,38.99
2023-05-24T03:31:02.779Z,39.04
2023-05-24T03:32:02.948Z,39.04
2023-05-24T03:33:02.911Z,39.02
2023-05-24T03:34:02.943Z,39.04
2023-05-24T03:35:02.979Z,39.00
2023-05-24T03:36:03.080Z,39.08
2023-05-24T03:37:03.080Z,39.03
2023-05-24T03:38:03.129Z,39.02
2023-05-24T03:39:03.177Z,39.08
2023-05-24T03:40:03.208Z,38.98
2023-05-24T03:41:03.286Z,39.02
2023-05-24T03:42:03.334Z,39.00
2023-05-24T03:43:04.589Z,39.03
2023-05-24T03:44:03.436Z,39.02
2023-05-24T03:45:03.465Z,39.02
2023-05-24T03:46:03.593Z,39.03
2023-05-24T03:47:03.612Z,39.02
2023-05-24T03:48:03.671Z,39.07
2023-05-24T03:49:03.700Z,39.05
2023-05-24T03:50:03.775Z,39.05
2023-05-24T03:51:03.823Z,39.09
2023-05-24T03:52:03.885Z,39.07
2023-05-24T03:53:03.909Z,39.08
2023-05-24T03:54:03.942Z,39.09
2023-05-24T03:55:04.027Z,39.09
2023-05-24T03:56:04.055Z,39.11
2023-05-24T03:57:04.132Z,39.11
2023-05-24T03:58:04.171Z,39.12
2023-05-24T03:59:04.238Z,39.15
2023-05-24T04:00:04.259Z,39.13
2023-05-24T04:01:04.388Z,39.10
2023-05-24T04:02:04.448Z,39.08
2023-05-24T04:03:04.497Z,39.08
2023-05-24T04:04:05.527Z,39.09
2023-05-24T04:05:04.603Z,39.09
2023-05-24T04:06:04.635Z,39.10
2023-05-24T04:07:04.637Z,39.08
2023-05-24T04:08:04.711Z,39.12
2023-05-24T04:09:04.750Z,39.08
2023-05-24T04:10:04.846Z,39.10
2023-05-24T04:11:04.828Z,39.10
2023-05-24T04:12:04.921Z,39.11
2023-05-24T04:13:04.956Z,39.13
2023-05-24T04:14:05.001Z,39.10
2023-05-24T04:15:05.055Z,39.08
2023-05-24T04:16:05.071Z,39.08
2023-05-24T04:17:05.230Z,39.05
2023-05-24T04:18:05.297Z,39.12
2023-05-24T04:19:05.232Z,39.10
2023-05-24T04:20:05.353Z,39.06
2023-05-24T04:21:05.384Z,39.05
2023-05-24T04:22:05.402Z,39.10
2023-05-24T04:23:05.474Z,39.06
2023-05-24T04:24:05.546Z,39.03
2023-05-24T04:25:05.663Z,39.06
2023-05-24T04:26:05.954Z,39.11
2023-05-24T04:27:05.727Z,39.10
2023-05-24T04:28:05.708Z,39.08
2023-05-24T04:29:05.764Z,39.04
2023-05-24T04:30:05.795Z,39.12
2023-05-24T04:31:05.913Z,39.13
2023-05-24T04:32:05.898Z,39.17
2023-05-24T04:33:06.004Z,39.12
2023-05-24T04:34:05.998Z,39.17
2023-05-24T04:35:06.023Z,39.14
2023-05-24T04:36:06.450Z,39.12
2023-05-24T04:37:06.144Z,39.04
2023-05-24T04:38:06.267Z,39.13
2023-05-24T04:39:06.263Z,39.09
2023-05-24T04:40:06.303Z,39.08
2023-05-24T04:41:06.349Z,39.05
2023-05-24T04:42:06.425Z,39.05
2023-05-24T04:43:06.446Z,39.04
2023-05-24T04:44:06.506Z,39.00
2023-05-24T04:45:06.589Z,39.00
2023-05-24T04:46:08.930Z,38.95
2023-05-24T04:47:07.048Z,38.95
2023-05-24T04:48:06.953Z,39.00
2023-05-24T04:49:06.972Z,39.00
2023-05-24T04:50:06.994Z,38.95
2023-05-24T04:51:07.029Z,38.99
2023-05-24T04:52:07.112Z,38.97
2023-05-24T04:53:07.174Z,38.96
2023-05-24T04:54:07.225Z,38.95
2023-05-24T04:55:07.266Z,38.98
2023-05-24T04:56:07.329Z,38.95
2023-05-24T04:57:07.354Z,38.95
2023-05-24T04:58:07.412Z,38.97
2023-05-24T04:59:07.479Z,38.98
2023-05-24T05:00:07.553Z,38.92
2023-05-24T05:01:07.606Z,38.94
2023-05-24T05:02:07.676Z,38.94
2023-05-24T05:03:07.853Z,38.97
2023-05-24T05:04:08.051Z,38.94
2023-05-24T05:05:07.848Z,38.91
2023-05-24T05:06:07.895Z,38.91
2023-05-24T05:07:07.954Z,38.95
2023-05-24T05:08:08.038Z,38.93
2023-05-24T05:09:08.102Z,38.96
2023-05-24T05:10:08.109Z,38.89
2023-05-24T05:11:08.193Z,38.92
2023-05-24T05:12:08.225Z,38.88
2023-05-24T05:13:08.299Z,38.99
2023-05-24T05:14:08.348Z,38.92
2023-05-24T05:15:08.399Z,38.92
2023-05-24T05:16:08.461Z,38.89
2023-05-24T05:17:08.511Z,38.90
2023-05-24T05:18:08.606Z,38.89
2023-05-24T05:19:08.589Z,38.93
2023-05-24T05:20:08.684Z,38.88
2023-05-24T05:21:08.738Z,38.94
2023-05-24T05:22:08.766Z,38.91
2023-05-24T05:23:08.819Z,38.90
2023-05-24T05:24:08.900Z,38.90
2023-05-24T05:25:08.925Z,38.88
2023-05-24T05:26:08.996Z,38.89
2023-05-24T05:27:09.028Z,38.92
2023-05-24T05:28:09.121Z,38.92
2023-05-24T05:29:09.161Z,38.92
2023-05-24T05:30:09.263Z,38.89
2023-05-24T05:31:09.302Z,38.92
2023-05-24T05:32:09.360Z,38.90
2023-05-24T05:33:09.622Z,38.85
2023-05-24T05:34:09.460Z,38.85
2023-05-24T05:35:09.477Z,38.88
2023-05-24T05:36:09.544Z,38.89
2023-05-24T05:37:09.599Z,38.93
2023-05-24T05:38:09.688Z,38.89
2023-05-24T05:39:09.735Z,38.92
2023-05-24T05:40:09.788Z,38.85
2023-05-24T05:41:09.847Z,38.89
2023-05-24T05:42:09.933Z,38.83
2023-05-24T05:43:09.952Z,38.87
2023-05-24T05:44:10.038Z,38.90
2023-05-24T05:45:10.132Z,38.85
2023-05-24T05:46:10.201Z,38.87
2023-05-24T05:47:10.234Z,38.84
2023-05-24T05:48:10.366Z,38.87
2023-05-24T05:49:10.296Z,38.89
2023-05-24T05:50:10.362Z,38.87
2023-05-24T05:51:10.443Z,38.85
2023-05-24T05:52:10.489Z,38.86
2023-05-24T05:53:10.548Z,38.85
2023-05-24T05:54:10.627Z,38.90
2023-05-24T05:55:10.674Z,38.87
2023-05-24T05:56:10.725Z,38.86
2023-05-24T05:57:10.797Z,38.84
2023-05-24T05:58:10.852Z,38.85
2023-05-24T05:59:10.896Z,38.87
2023-05-24T06:00:10.982Z,38.87
2023-05-24T06:01:11.015Z,38.83
2023-05-24T06:02:11.087Z,38.81
2023-05-24T06:03:11.380Z,38.84
2023-05-24T06:04:11.283Z,38.80
2023-05-24T06:05:11.213Z,39.32
2023-05-24T06:06:11.269Z,39.36
2023-05-24T06:07:11.337Z,39.81
2023-05-24T06:08:11.411Z,39.91
2023-05-24T06:09:11.487Z,40.06
2023-05-24T06:10:11.517Z,40.28
2023-05-24T06:11:11.586Z,40.35
2023-05-24T06:12:12.589Z,40.49
2023-05-24T06:13:11.585Z,40.68
2023-05-24T06:14:11.538Z,40.54
2023-05-24T06:15:11.671Z,40.95
2023-05-24T06:16:11.566Z,40.85
2023-05-24T06:17:11.537Z,41.10
2023-05-24T06:18:11.564Z,41.09
2023-05-24T06:19:11.491Z,41.38
2023-05-24T06:20:11.566Z,41.20
2023-05-24T06:21:11.520Z,41.20
2023-05-24T06:22:11.504Z,41.26
2023-05-24T06:23:11.491Z,41.13
2023-05-24T06:24:11.493Z,40.88
2023-05-24T06:25:11.550Z,41.10
2023-05-24T06:26:11.573Z,40.91
2023-05-24T06:27:11.618Z,41.29
2023-05-24T06:28:11.637Z,41.24
2023-05-24T06:29:11.660Z,41.31
2023-05-24T06:30:11.728Z,40.93
2023-05-24T06:31:11.748Z,41.09
2023-05-24T06:32:11.761Z,41.21
2023-05-24T06:33:11.781Z,41.51
2023-05-24T06:34:11.816Z,41.26
2023-05-24T06:35:11.884Z,41.17
2023-05-24T06:36:11.885Z,41.19
2023-05-24T06:37:11.892Z,41.37
2023-05-24T06:38:11.986Z,41.60
2023-05-24T06:39:11.984Z,41.30
2023-05-24T06:40:12.053Z,41.33
2023-05-24T06:41:12.029Z,41.38
2023-05-24T06:42:12.073Z,41.23
2023-05-24T06:43:12.116Z,41.25
2023-05-24T06:44:12.152Z,41.39
2023-05-24T06:45:12.165Z,41.18
2023-05-24T06:46:12.201Z,41.34
2023-05-24T06:47:12.309Z,41.22
2023-05-24T06:48:12.415Z,40.93
2023-05-24T06:49:12.275Z,41.34
2023-05-24T06:50:12.423Z,41.35
2023-05-24T06:51:12.374Z,41.42
2023-05-24T06:52:12.382Z,41.36
2023-05-24T06:53:12.444Z,41.32
2023-05-24T06:54:12.470Z,41.58
2023-05-24T06:55:12.469Z,41.31
2023-05-24T06:56:12.509Z,41.30
2023-05-24T06:57:12.546Z,41.29
2023-05-24T06:58:12.564Z,41.59
2023-05-24T06:59:12.575Z,41.44
2023-05-24T07:00:12.686Z,41.32
2023-05-24T07:01:12.706Z,41.27
2023-05-24T07:02:12.620Z,41.31
2023-05-24T07:03:12.656Z,41.19
2023-05-24T07:04:12.748Z,41.23
2023-05-24T07:05:12.841Z,41.24
2023-05-24T07:06:13.047Z,40.92
2023-05-24T07:07:12.768Z,40.90
2023-05-24T07:08:12.821Z,40.83
2023-05-24T07:09:12.795Z,40.72
2023-05-24T07:10:12.894Z,40.22
2023-05-24T07:11:12.909Z,41.17
2023-05-24T07:12:12.939Z,40.92
2023-05-24T07:13:12.958Z,40.98
2023-05-24T07:14:12.971Z,41.01
2023-05-24T07:15:12.980Z,41.21
2023-05-24T07:16:12.979Z,41.21
2023-05-24T07:17:13.043Z,41.15
2023-05-24T07:18:12.995Z,41.09
2023-05-24T07:19:13.012Z,41.00
2023-05-24T07:20:13.129Z,40.41
2023-05-24T07:21:13.046Z,40.67
2023-05-24T07:22:13.070Z,40.89
2023-05-24T07:23:13.166Z,41.10
2023-05-24T07:24:14.757Z,40.80
2023-05-24T07:25:13.072Z,41.23
2023-05-24T07:26:13.089Z,41.17
2023-05-24T07:27:13.093Z,41.15
2023-05-24T07:28:13.077Z,41.25
2023-05-24T07:29:13.060Z,41.26
2023-05-24T07:30:23.504Z,41.22
2023-05-24T07:31:14.088Z,41.34
2023-05-24T07:32:13.059Z,41.27
2023-05-24T07:33:13.040Z,41.25
2023-05-24T07:34:13.022Z,41.26
2023-05-24T07:35:13.039Z,41.31
2023-05-24T07:36:13.048Z,41.59
2023-05-24T07:37:13.012Z,41.37
2023-05-24T07:38:13.024Z,41.24
2023-05-24T07:39:13.206Z,41.52
2023-05-24T07:40:12.976Z,41.28
2023-05-24T07:41:12.975Z,41.39
2023-05-24T07:42:12.987Z,41.31
2023-05-24T07:43:12.943Z,41.33
2023-05-24T07:44:12.953Z,41.27
2023-05-24T07:45:12.943Z,41.44
2023-05-24T07:46:12.991Z,41.29
2023-05-24T07:47:12.934Z,41.29
2023-05-24T07:48:12.955Z,41.19
2023-05-24T07:49:12.928Z,41.66
2023-05-24T07:50:12.948Z,41.33
2023-05-24T07:51:12.903Z,41.17
2023-05-24T07:52:12.902Z,41.43
2023-05-24T07:53:12.899Z,41.27
2023-05-24T07:54:12.858Z,41.54
2023-05-24T07:55:12.895Z,41.39
2023-05-24T07:56:12.878Z,41.32
2023-05-24T07:57:12.901Z,41.12
2023-05-24T07:58:12.899Z,41.00
2023-05-24T07:59:12.953Z,40.96
2023-05-24T08:00:12.960Z,40.88
2023-05-24T08:01:12.970Z,40.45
2023-05-24T08:02:12.990Z,40.59
2023-05-24T08:03:13.057Z,40.78
2023-05-24T08:04:13.016Z,40.84
2023-05-24T08:05:13.073Z,40.69
2023-05-24T08:06:13.083Z,40.52
2023-05-24T08:07:13.161Z,40.20
2023-05-24T08:08:13.139Z,40.19
2023-05-24T08:09:13.186Z,40.23
2023-05-24T08:10:13.218Z,40.64
2023-05-24T08:11:13.397Z,40.57
2023-05-24T08:12:15.591Z,41.15
2023-05-24T08:13:13.297Z,41.16
2023-05-24T08:14:13.276Z,40.66
2023-05-24T08:15:13.272Z,40.97
2023-05-24T08:16:13.306Z,40.95
2023-05-24T08:17:13.232Z,41.01
2023-05-24T08:18:14.059Z,40.97
2023-05-24T08:19:13.234Z,41.27
2023-05-24T08:20:13.230Z,40.85
2023-05-24T08:21:13.204Z,41.09
2023-05-24T08:22:13.214Z,40.81
2023-05-24T08:23:13.162Z,40.55
2023-05-24T08:24:13.200Z,40.56
2023-05-24T08:25:13.179Z,40.59
2023-05-24T08:26:13.178Z,41.13
2023-05-24T08:27:13.269Z,40.93
2023-05-24T08:28:13.163Z,40.97
2023-05-24T08:29:13.158Z,41.11
2023-05-24T08:30:13.175Z,41.15
2023-05-24T08:31:13.182Z,41.24
2023-05-24T08:32:13.200Z,41.23
2023-05-24T08:33:13.137Z,41.61
2023-05-24T08:34:13.124Z,41.60
2023-05-24T08:35:20.963Z,42.00
2023-05-24T08:36:14.093Z,41.92
2023-05-24T08:37:14.865Z,42.28
2023-05-24T08:38:13.080Z,42.13
2023-05-24T08:39:13.091Z,42.72
2023-05-24T08:40:13.050Z,42.62
2023-05-24T08:41:13.043Z,42.55
2023-05-24T08:42:13.060Z,42.65
2023-05-24T08:43:13.035Z,42.79
2023-05-24T08:44:13.055Z,42.89
2023-05-24T08:45:13.043Z,42.92
2023-05-24T08:46:13.081Z,42.69
2023-05-24T08:47:13.003Z,42.80
2023-05-24T08:48:13.096Z,42.84
2023-05-24T08:49:12.988Z,42.68
2023-05-24T08:50:13.000Z,42.53
2023-05-24T08:51:12.966Z,42.52
2023-05-24T08:52:12.990Z,42.58
2023-05-24T08:53:12.976Z,42.50
2023-05-24T08:54:12.949Z,42.51
2023-05-24T08:55:12.973Z,42.50
2023-05-24T08:56:12.955Z,42.57
2023-05-24T08:57:12.937Z,42.57
2023-05-24T08:58:12.950Z,42.51
2023-05-24T08:59:12.948Z,42.29
2023-05-24T09:00:13.194Z,42.30
2023-05-24T09:01:13.100Z,42.55
2023-05-24T09:02:12.922Z,42.83
2023-05-24T09:03:13.019Z,42.56
2023-05-24T09:04:12.894Z,42.85
2023-05-24T09:05:12.887Z,42.88
2023-05-24T09:06:13.062Z,42.81
2023-05-24T09:07:12.854Z,42.72
2023-05-24T09:08:12.852Z,42.58
2023-05-24T09:09:12.854Z,42.83
2023-05-24T09:10:12.863Z,42.91
2023-05-24T09:11:12.836Z,42.70
2023-05-24T09:12:16.844Z,42.85
2023-05-24T09:13:13.869Z,43.01
2023-05-24T09:14:12.808Z,42.93
2023-05-24T09:15:12.867Z,42.85
2023-05-24T09:16:13.122Z,43.10
2023-05-24T09:17:12.822Z,43.63
2023-05-24T09:18:12.794Z,43.41
2023-05-24T09:19:12.781Z,43.92
2023-05-24T09:20:12.872Z,43.50
2023-05-24T09:21:12.794Z,43.63
2023-05-24T09:22:12.797Z,43.33
2023-05-24T09:23:12.757Z,43.18
2023-05-24T09:24:12.748Z,43.31
2023-05-24T09:25:12.713Z,43.23
2023-05-24T09:26:12.727Z,43.23
2023-05-24T09:27:12.709Z,43.18
2023-05-24T09:28:12.741Z,43.18
2023-05-24T09:29:12.698Z,43.30
2023-05-24T09:30:13.121Z,43.11
2023-05-24T09:31:13.177Z,42.93
2023-05-24T09:32:12.688Z,42.76
2023-05-24T09:33:12.766Z,42.58
2023-05-24T09:34:12.706Z,42.64
2023-05-24T09:35:12.732Z,42.64
2023-05-24T09:36:12.728Z,42.61
2023-05-24T09:37:12.733Z,42.54
2023-05-24T09:38:12.716Z,43.10
2023-05-24T09:39:12.753Z,42.89
2023-05-24T09:40:12.728Z,42.85
2023-05-24T09:41:13.063Z,42.58
2023-05-24T09:42:12.724Z,42.58
2023-05-24T09:43:12.734Z,42.30
2023-05-24T09:44:12.740Z,42.19
2023-05-24T09:45:12.758Z,42.05
2023-05-24T09:46:12.746Z,42.40
2023-05-24T09:47:12.906Z,42.69
2023-05-24T09:48:12.826Z,42.77
2023-05-24T09:49:12.766Z,42.70
2023-05-24T09:50:12.784Z,42.20
2023-05-24T09:51:13.150Z,42.23
2023-05-24T09:52:12.832Z,42.07
2023-05-24T09:53:12.847Z,42.06
2023-05-24T09:54:12.844Z,41.78
2023-05-24T09:55:12.848Z,41.73
2023-05-24T09:56:12.877Z,41.72
2023-05-24T09:57:12.859Z,41.68
2023-05-24T09:58:12.982Z,41.73
2023-05-24T09:59:12.900Z,41.91
2023-05-24T10:00:12.883Z,41.93
2023-05-24T10:01:13.008Z,41.82
2023-05-24T10:02:12.962Z,41.86
2023-05-24T10:03:13.662Z,41.90
2023-05-24T10:04:13.090Z,41.83
2023-05-24T10:05:12.988Z,41.80
2023-05-24T10:06:13.017Z,41.75
2023-05-24T10:07:13.025Z,41.65
2023-05-24T10:08:13.050Z,41.71
2023-05-24T10:09:13.072Z,41.87
2023-05-24T10:10:13.112Z,41.72
2023-05-24T10:11:13.162Z,41.78
2023-05-24T10:12:13.183Z,41.91
2023-05-24T10:13:13.197Z,41.89
2023-05-24T10:14:13.271Z,41.91
2023-05-24T10:15:13.303Z,41.91
2023-05-24T10:16:13.412Z,41.95
2023-05-24T10:17:13.556Z,41.98
2023-05-24T10:18:14.504Z,42.02
2023-05-24T10:19:13.441Z,42.01
2023-05-24T10:20:13.502Z,42.00
2023-05-24T10:21:13.588Z,42.07
2023-05-24T10:22:13.569Z,42.02
2023-05-24T10:23:13.584Z,42.09
2023-05-24T10:24:13.701Z,42.10
2023-05-24T10:25:13.678Z,42.22
2023-05-24T10:26:13.702Z,42.16
2023-05-24T10:27:13.742Z,42.30
2023-05-24T10:28:13.828Z,42.22
2023-05-24T10:29:13.809Z,42.31
2023-05-24T10:30:14.208Z,42.29
2023-05-24T10:31:13.952Z,42.50
2023-05-24T10:32:13.928Z,42.32
2023-05-24T10:33:13.980Z,41.98
2023-05-24T10:34:13.960Z,41.98
2023-05-24T10:35:14.009Z,42.13
2023-05-24T10:36:14.072Z,42.17
2023-05-24T10:37:14.136Z,42.15
2023-05-24T10:38:14.125Z,42.23
2023-05-24T10:39:14.173Z,42.16
2023-05-24T10:40:14.259Z,42.21
2023-05-24T10:41:14.390Z,42.32
2023-05-24T10:42:14.302Z,42.16
2023-05-24T10:43:14.372Z,42.13
2023-05-24T10:44:14.370Z,42.81
2023-05-24T10:45:14.322Z,43.76
2023-05-24T10:46:14.364Z,43.46
2023-05-24T10:47:14.313Z,43.80
2023-05-24T10:48:14.438Z,42.91
2023-05-24T10:49:14.323Z,42.78
2023-05-24T10:50:14.354Z,42.59
2023-05-24T10:51:14.335Z,42.50
2023-05-24T10:52:14.319Z,42.49
2023-05-24T10:53:14.342Z,42.44
2023-05-24T10:54:14.293Z,42.21
2023-05-24T10:55:14.313Z,42.07
2023-05-24T10:56:14.356Z,41.96
2023-05-24T10:57:14.362Z,41.76
2023-05-24T10:58:14.372Z,41.78
2023-05-24T10:59:14.320Z,41.66
2023-05-24T11:00:17.970Z,41.61
2023-05-24T11:01:15.372Z,41.69
2023-05-24T11:02:14.407Z,41.81
2023-05-24T11:03:14.390Z,41.42
2023-05-24T11:04:14.368Z,41.47
2023-05-24T11:05:14.366Z,41.53
2023-05-24T11:06:14.291Z,41.58
2023-05-24T11:07:14.330Z,41.60
2023-05-24T11:08:14.299Z,41.58
2023-05-24T11:09:14.274Z,41.69
2023-05-24T11:10:14.293Z,41.85
2023-05-24T11:11:23.291Z,41.76
2023-05-24T11:12:15.249Z,41.74
2023-05-24T11:13:14.268Z,41.67
2023-05-24T11:14:14.221Z,41.77
2023-05-24T11:15:14.240Z,41.74
2023-05-24T11:16:14.267Z,41.60
2023-05-24T11:17:14.226Z,41.44
2023-05-24T11:18:14.313Z,41.36
2023-05-24T11:19:14.196Z,41.64
2023-05-24T11:20:14.288Z,41.56
2023-05-24T11:21:14.206Z,41.69
2023-05-24T11:22:14.219Z,41.77
2023-05-24T11:23:14.177Z,41.83
2023-05-24T11:24:14.195Z,41.78
2023-05-24T11:25:14.170Z,41.85
2023-05-24T11:26:15.114Z,41.87
2023-05-24T11:27:14.157Z,41.77
2023-05-24T11:28:14.174Z,42.14
2023-05-24T11:29:14.167Z,42.16
2023-05-24T11:30:14.213Z,42.31
2023-05-24T11:31:14.188Z,42.42
2023-05-24T11:32:14.279Z,42.43
2023-05-24T11:33:14.271Z,42.57
2023-05-24T11:34:14.222Z,42.57
2023-05-24T11:35:14.260Z,42.46
2023-05-24T11:36:14.336Z,42.40
2023-05-24T11:37:16.834Z,42.36
2023-05-24T11:38:14.385Z,42.37
2023-05-24T11:39:14.377Z,42.37
2023-05-24T11:40:14.358Z,42.36
2023-05-24T11:41:14.355Z,42.34
2023-05-24T11:42:14.364Z,42.22
2023-05-24T11:43:16.561Z,42.23
2023-05-24T11:44:14.476Z,42.24
2023-05-24T11:45:14.425Z,42.23
2023-05-24T11:46:14.463Z,42.18
2023-05-24T11:47:14.506Z,42.14
2023-05-24T11:48:14.621Z,41.99
2023-05-24T11:49:14.608Z,41.93
2023-05-24T11:50:15.647Z,41.89
2023-05-24T11:51:14.671Z,41.73
2023-05-24T11:52:14.743Z,41.71
2023-05-24T11:53:14.729Z,41.67
2023-05-24T11:54:14.734Z,41.67
2023-05-24T11:55:16.578Z,41.58
2023-05-24T11:56:14.823Z,41.53
2023-05-24T11:57:14.862Z,41.49
2023-05-24T11:58:14.907Z,41.50
2023-05-24T11:59:14.926Z,41.48
2023-05-24T12:00:14.990Z,41.48
2023-05-24T12:01:15.030Z,41.46
2023-05-24T12:02:15.129Z,41.46
2023-05-24T12:03:15.217Z,41.41
2023-05-24T12:04:15.269Z,41.37
2023-05-24T12:05:15.181Z,41.38
2023-05-24T12:06:15.235Z,41.34
2023-05-24T12:07:15.289Z,41.32
2023-05-24T12:08:15.296Z,41.33
2023-05-24T12:09:15.333Z,41.27
2023-05-24T12:10:15.361Z,41.27
2023-05-24T12:11:15.414Z,41.25
2023-05-24T12:12:15.483Z,41.25
2023-05-24T12:13:15.501Z,41.18
2023-05-24T12:14:15.539Z,41.22
2023-05-24T12:15:15.603Z,41.18
2023-05-24T12:16:15.666Z,41.17
2023-05-24T12:17:15.637Z,41.17
2023-05-24T12:18:15.743Z,41.13
2023-05-24T12:19:31.593Z,41.10
2023-05-24T12:20:16.808Z,41.05
2023-05-24T12:21:15.749Z,41.01
2023-05-24T12:22:16.191Z,40.96
2023-05-24T12:23:15.750Z,41.07
2023-05-24T12:24:15.687Z,41.04
2023-05-24T12:25:15.717Z,41.01
2023-05-24T12:26:15.678Z,41.05
2023-05-24T12:27:15.739Z,41.00
2023-05-24T12:28:15.692Z,41.06
2023-05-24T12:29:15.651Z,41.05
2023-05-24T12:30:15.707Z,41.07
2023-05-24T12:31:15.777Z,41.05
2023-05-24T12:32:16.011Z,41.05
2023-05-24T12:33:15.834Z,41.09
2023-05-24T12:34:15.885Z,41.06
2023-05-24T12:35:15.896Z,41.05
2023-05-24T12:36:15.981Z,41.01
2023-05-24T12:37:16.028Z,40.99
2023-05-24T12:38:16.067Z,40.99
2023-05-24T12:39:16.108Z,40.96
2023-05-24T12:40:16.136Z,40.98
2023-05-24T12:41:16.191Z,40.96
2023-05-24T12:42:16.244Z,40.96
2023-05-24T12:43:16.290Z,40.93
2023-05-24T12:44:16.321Z,40.96
2023-05-24T12:45:16.386Z,40.95
2023-05-24T12:46:16.534Z,40.92
2023-05-24T12:47:16.544Z,40.99
2023-05-24T12:48:16.560Z,40.91
2023-05-24T12:49:16.542Z,40.94
2023-05-24T12:50:16.579Z,40.90
2023-05-24T12:51:16.619Z,40.92
2023-05-24T12:52:17.719Z,40.91
2023-05-24T12:53:16.758Z,40.86